Eastvale, CA

5:28 AM PDT on September 04, 2015 (GMT -0700)
Cloverdale Estates | | Change Station
CLOSE
Current Station
Personal Weather Station
Location: Corona, CA
Elevation: 656 ft
Nearby Weather Stations

Elev 656 ft 33.97 °N, 117.56 °W | Updated 12 minutes ago

Overcast
Overcast
63.5 °F
Feels Like 63.5 °F
N
0.0
Wind Variable Wind from South

Today
High -- | Low -- °F
--% Chance of Precip.
Yesterday
High -- | Low -- °F
Precip. -- in
6:25 AM 7:12 PM
Waning Gibbous, 60% visible
Pressure 29.83 in
Visibility 10.0 miles
Clouds Overcast 1700 ft
Dew Point 60 °F
Humidity 89%
Rainfall 0.00 in
Snow Depth Not available.
UV 0 out of 12
Pollen 8.40 out of 12
Air Quality Not available.
Flu Activity Not available.
METAR KRAL 041153Z AUTO 00000KT 10SM OVC017 18/14 A2987 RMK AO2 SLP100 T01830139 10189 20172 50000
Pressure 29.83 in
Visibility 10.0 miles
Clouds Overcast 1700 ft
Dew Point 60 °F
Humidity 89%
Rainfall 0.00 in
Snow Depth Not available.
UV 0 out of 12
Pollen 8.40 out of 12
Air Quality Not available.
Flu Activity Not available.
METAR KRAL 041153Z AUTO 00000KT 10SM OVC017 18/14 A2987 RMK AO2 SLP100 T01830139 10189 20172 50000

10-Day Weather Forecast

×

Almanac

Astronomy

Sep. 04, 2015 Rise Set
Actual Time
Civil Twilight
Nautical Twilight
Astronomical Twilight
Moon
Length of Visible Light
Length of Day
Tomorrow will be .
, % of the Moon is Illuminated

Today's Extremes

State Highs State Lows

Community

WunderPhotos

Upload Photos

1,852,160 photos uploaded!

WunderBlogs® & News

Nearby

Air Quality

  Air Quality AQ Index Pollutant
Not available.

Snow Depth

Station Depth Elevation

Earthquake Activity

City Distance Mag. Time & Date
Minimum magnitude displayed is 2.5.

Coastal Water Temperatures

Place Temperature

Stations

Nearby Weather Stations

Station Location Temp. Windchill Dew Point Humidity Wind Precip. Elev Updated Type